Time;durP1;ratioP1;P1;durP2;ratioP2;P2;SDS_P1;SDS_P2;PMS_P1;PMS_P2;Temp;Humidity;BMP_temperature;BMP_pressure;BME280_temperature;BME280_humidity;BME280_pressure;Samples;Min_cycle;Max_cycle;Signal;HPM_P1;HPM_P2
2022/12/05 00:02:23;;;;;;;52.47;31.43;;;5.60;99.90;;;;;;4991176;28;20284;-79
2022/12/05 00:04:49;;;;;;;49.20;30.30;;;5.60;99.90;;;;;;5009264;28;20045;-79
2022/12/05 00:07:16;;;;;;;54.07;31.03;;;5.60;99.90;;;;;;4991621;28;20038;-79
2022/12/05 00:09:42;;;;;;;51.17;30.63;;;5.70;99.90;;;;;;5008934;28;20046;-79
2022/12/05 00:12:08;;;;;;;50.20;31.03;;;5.70;99.90;;;;;;5022234;28;20038;-79
2022/12/05 00:14:34;;;;;;;51.77;30.93;;;5.80;99.90;;;;;;4976831;28;20038;-79
2022/12/05 00:17:00;;;;;;;54.00;30.93;;;5.90;99.90;;;;;;4993106;28;20053;-79
2022/12/05 00:19:26;;;;;;;46.50;29.63;;;6.10;99.90;;;;;;5007497;28;20488;-79
2022/12/05 00:21:52;;;;;;;46.47;29.57;;;6.30;99.90;;;;;;5025752;28;20029;-78
2022/12/05 00:24:19;;;;;;;46.77;29.73;;;6.30;99.90;;;;;;5008847;28;20046;-78
2022/12/05 00:26:45;;;;;;;45.73;28.60;;;6.30;99.90;;;;;;5024781;28;20042;-78
2022/12/05 00:29:11;;;;;;;46.97;29.33;;;6.30;99.90;;;;;;4992359;28;20038;-79
2022/12/05 00:31:37;;;;;;;50.80;30.73;;;6.20;99.90;;;;;;4955513;28;20035;-79
2022/12/05 00:34:04;;;;;;;50.33;30.60;;;6.00;99.90;;;;;;4991692;28;20034;-78
2022/12/05 00:36:31;;;;;;;48.20;31.27;;;5.90;99.90;;;;;;5008405;28;20034;-79
2022/12/05 00:38:58;;;;;;;51.47;31.30;;;5.90;99.90;;;;;;5009105;28;20042;-78
2022/12/05 00:41:25;;;;;;;50.03;30.40;;;5.80;99.90;;;;;;5007425;28;20030;-78
2022/12/05 00:43:52;;;;;;;46.93;29.70;;;5.70;99.90;;;;;;4957464;28;20038;-79
2022/12/05 00:46:20;;;;;;;48.47;29.70;;;5.70;99.90;;;;;;4990816;28;20041;-78
2022/12/05 00:48:46;;;;;;;46.70;29.43;;;5.60;99.90;;;;;;4956776;28;20073;-79
2022/12/05 00:51:13;;;;;;;43.33;30.60;;;5.60;99.90;;;;;;4957000;28;20045;-79
2022/12/05 00:53:39;;;;;;;42.30;29.23;;;5.60;99.90;;;;;;4997065;28;20818;-78
2022/12/05 00:56:17;;;;;;;47.83;29.80;;;5.60;99.90;;;;;;4994738;28;20042;-79
2022/12/05 00:58:43;;;;;;;46.27;29.53;;;5.60;99.90;;;;;;5008712;28;20045;-79
2022/12/05 01:01:16;;;;;;;42.60;28.10;;;5.70;99.90;;;;;;5023109;28;20415;-79
2022/12/05 01:03:42;;;;;;;42.40;27.93;;;5.60;99.90;;;;;;5005370;28;20050;-79
2022/12/05 01:06:09;;;;;;;43.97;29.13;;;5.60;99.90;;;;;;5000557;28;20429;-78
2022/12/05 01:08:35;;;;;;;44.33;27.90;;;5.60;99.90;;;;;;5008178;28;20046;-78
2022/12/05 01:11:01;;;;;;;46.63;29.10;;;5.60;99.90;;;;;;4955958;28;20043;-79
2022/12/05 01:13:28;;;;;;;42.57;27.70;;;5.60;99.90;;;;;;4990288;28;20042;-79
2022/12/05 01:15:54;;;;;;;45.93;28.80;;;5.60;99.90;;;;;;5006414;28;20415;-79
2022/12/05 01:18:20;;;;;;;42.20;26.70;;;5.60;99.90;;;;;;4960140;28;20046;-78
2022/12/05 01:20:46;;;;;;;44.83;28.03;;;5.60;99.90;;;;;;4974901;28;20125;-79
2022/12/05 01:23:12;;;;;;;42.00;27.87;;;5.60;99.90;;;;;;5006350;28;20045;-78
2022/12/05 01:25:40;;;;;;;43.97;28.73;;;5.50;99.90;;;;;;5003424;28;20042;-79
2022/12/05 01:28:06;;;;;;;41.70;27.53;;;5.60;99.90;;;;;;4972511;28;20047;-78
2022/12/05 01:30:35;;;;;;;43.53;28.03;;;5.70;99.90;;;;;;5000286;28;20060;-79
2022/12/05 01:33:02;;;;;;;45.03;28.13;;;5.80;99.90;;;;;;5005619;28;20377;-79
2022/12/05 01:35:31;;;;;;;43.80;27.17;;;5.80;99.90;;;;;;5007085;28;20038;-79
2022/12/05 01:37:57;;;;;;;41.67;27.40;;;5.90;99.90;;;;;;5001342;28;20043;-79
2022/12/05 01:40:23;;;;;;;39.60;25.43;;;6.00;99.90;;;;;;4983735;28;20045;-79
2022/12/05 01:42:49;;;;;;;40.27;27.33;;;6.10;99.90;;;;;;4991807;28;20049;-79
2022/12/05 01:45:26;;;;;;;40.00;26.00;;;6.20;99.90;;;;;;4992498;28;20049;-79
2022/12/05 01:47:52;;;;;;;40.13;26.20;;;6.20;99.90;;;;;;4982166;28;20061;-78
2022/12/05 01:50:18;;;;;;;39.53;26.50;;;6.20;99.90;;;;;;5014385;28;20038;-79
2022/12/05 01:52:44;;;;;;;37.33;26.47;;;6.30;99.90;;;;;;5007478;28;20038;-79
2022/12/05 01:55:12;;;;;;;38.57;25.37;;;6.30;99.90;;;;;;5001409;28;20395;-79
2022/12/05 01:57:38;;;;;;;43.67;25.70;;;6.40;99.90;;;;;;4981326;28;20039;-78
2022/12/05 02:00:12;;;;;;;41.90;26.60;;;6.30;99.90;;;;;;5006285;28;20038;-78
2022/12/05 02:02:40;;;;;;;39.80;27.17;;;6.00;99.90;;;;;;5006417;28;20551;-79
2022/12/05 02:05:16;;;;;;;40.07;24.97;;;5.90;99.90;;;;;;5006453;28;20038;-79
2022/12/05 02:07:42;;;;;;;40.83;26.20;;;5.90;99.90;;;;;;4992238;28;20027;-79
2022/12/05 02:10:08;;;;;;;42.53;27.23;;;5.90;99.90;;;;;;4999922;28;20046;-79
2022/12/05 02:12:34;;;;;;;41.67;27.00;;;5.80;99.90;;;;;;4990652;28;20042;-79
2022/12/05 02:15:19;;;;;;;42.73;26.40;;;5.90;99.90;;;;;;4996000;28;20034;-78
2022/12/05 02:18:17;;;;;;;38.13;26.27;;;6.00;99.90;;;;;;5011972;28;20372;-79
2022/12/05 02:21:18;;;;;;;41.50;26.40;;;5.90;99.90;;;;;;5007973;28;20050;-78
2022/12/05 02:23:52;;;;;;;;;;;6.10;99.90;;;;;;5018250;28;20042;-79
2022/12/05 02:26:24;;;;;;;38.57;24.93;;;6.20;99.90;;;;;;4999459;28;19934;-79
2022/12/05 02:29:27;;;;;;;35.70;24.13;;;6.10;99.90;;;;;;5008097;28;20043;-79
2022/12/05 02:32:20;;;;;;;38.63;25.83;;;5.90;99.90;;;;;;5021968;28;20034;-79
2022/12/05 02:35:12;;;;;;;38.00;25.43;;;5.80;99.90;;;;;;4975501;28;20023;-79
2022/12/05 02:37:57;;;;;;;40.73;26.17;;;5.90;99.90;;;;;;4979945;28;20025;-79
2022/12/05 02:40:25;;;;;;;36.23;26.00;;;6.10;99.90;;;;;;4977182;28;20049;-79
2022/12/05 02:43:09;;;;;;;39.50;26.37;;;6.20;99.90;;;;;;5006620;28;20194;-79
2022/12/05 02:45:35;;;;;;;43.47;26.73;;;6.20;99.90;;;;;;5002776;28;20034;-79
2022/12/05 02:48:01;;;;;;;40.27;26.90;;;6.30;99.90;;;;;;4955891;28;20050;-78
2022/12/05 02:50:33;;;;;;;43.07;27.47;;;6.20;99.90;;;;;;4994097;28;20041;-79
2022/12/05 02:53:06;;;;;;;37.30;25.43;;;6.10;99.90;;;;;;4999835;28;20736;-79
2022/12/05 02:55:32;;;;;;;42.70;25.67;;;6.00;99.90;;;;;;4999554;28;20037;-79
2022/12/05 02:58:06;;;;;;;34.83;25.10;;;6.00;99.90;;;;;;4982212;28;20391;-79
2022/12/05 03:00:34;;;;;;;38.03;25.23;;;5.90;99.90;;;;;;5009274;28;20042;-78
2022/12/05 03:03:01;;;;;;;40.57;25.70;;;5.90;99.90;;;;;;5004577;28;20499;-78
2022/12/05 03:05:36;;;;;;;42.60;26.17;;;6.00;99.90;;;;;;4972389;28;20684;-79
2022/12/05 03:08:02;;;;;;;37.40;25.73;;;6.10;99.90;;;;;;4991426;28;20045;-79
2022/12/05 03:10:28;;;;;;;40.03;25.70;;;5.90;99.90;;;;;;4989076;28;20069;-79
2022/12/05 03:12:57;;;;;;;36.80;25.50;;;5.80;99.90;;;;;;4967538;28;20045;-79
2022/12/05 03:15:34;;;;;;;38.63;25.60;;;5.70;99.90;;;;;;4988424;28;20054;-78
2022/12/05 03:18:24;;;;;;;36.63;25.70;;;5.90;99.90;;;;;;4973343;28;20034;-79
2022/12/05 03:20:59;;;;;;;38.50;25.63;;;5.90;99.90;;;;;;4971391;28;20538;-79
2022/12/05 03:23:39;;;;;;;36.57;25.90;;;5.90;99.90;;;;;;4989610;28;20400;-79
2022/12/05 03:26:20;;;;;;;41.07;25.30;;;6.10;99.90;;;;;;5003146;28;20042;-79
2022/12/05 03:28:54;;;;;;;36.78;25.77;;;6.00;99.90;;;;;;4990970;28;20050;-79
2022/12/05 03:31:28;;;;;;;34.83;25.47;;;6.20;99.90;;;;;;5022469;28;20035;-79
2022/12/05 03:33:55;;;;;;;40.50;25.43;;;6.20;99.90;;;;;;4976187;28;20419;-79
2022/12/05 03:36:28;;;;;;;38.43;25.93;;;6.20;99.90;;;;;;4975016;28;20029;-78
2022/12/05 03:39:28;;;;;;;36.67;24.30;;;6.30;99.90;;;;;;4958345;28;20039;-78
2022/12/05 03:41:54;;;;;;;35.53;24.53;;;6.30;99.90;;;;;;4969867;28;20078;-79
2022/12/05 03:44:27;;;;;;;33.47;22.90;;;6.10;99.90;;;;;;4992542;28;20045;-78
2022/12/05 03:47:11;;;;;;;39.20;24.97;;;6.10;99.90;;;;;;4961478;28;20033;-79
2022/12/05 03:49:43;;;;;;;38.30;25.83;;;6.00;99.90;;;;;;4998852;28;20053;-79
2022/12/05 03:52:15;;;;;;;39.80;25.10;;;6.10;99.90;;;;;;5025749;28;20026;-79
2022/12/05 03:55:02;;;;;;;33.43;24.53;;;6.30;99.90;;;;;;4993862;28;20479;-79
2022/12/05 03:57:30;;;;;;;34.30;24.73;;;6.30;99.90;;;;;;4993677;28;20037;-79
2022/12/05 04:00:03;;;;;;;40.00;25.17;;;6.20;99.90;;;;;;5012584;28;20034;-79
2022/12/05 04:02:44;;;;;;;31.50;23.50;;;6.20;99.90;;;;;;5008201;28;20045;-78
2022/12/05 04:05:25;;;;;;;38.35;25.27;;;6.30;99.90;;;;;;4997459;28;20038;-79
2022/12/05 04:08:01;;;;;;;35.30;25.00;;;6.40;99.90;;;;;;5007924;28;20396;-78
2022/12/05 04:10:30;;;;;;;36.87;24.60;;;6.50;99.90;;;;;;4959960;28;20039;-78
2022/12/05 04:12:58;;;;;;;37.97;24.80;;;6.20;99.90;;;;;;5005297;28;20034;-78
2022/12/05 04:17:01;;;;;;;35.07;24.47;;;6.20;99.90;;;;;;5007059;28;20034;-78
2022/12/05 04:18:13;;;;;;;38.10;25.03;;;6.30;99.90;;;;;;5004095;28;20026;-78
2022/12/05 04:23:24;;;;;;;38.97;25.03;;;6.40;99.90;;;;;;4993961;28;20033;-79
2022/12/05 04:26:22;;;;;;;38.50;24.70;;;6.50;99.90;;;;;;5002977;28;20058;-79
2022/12/05 04:28:54;;;;;;;39.20;24.47;;;6.50;99.90;;;;;;5008010;28;20353;-78
2022/12/05 04:31:31;;;;;;;34.13;24.47;;;6.50;99.90;;;;;;4971118;28;20046;-79
2022/12/05 04:34:04;;;;;;;36.57;24.33;;;6.50;99.90;;;;;;4976501;28;20405;-78
2022/12/05 04:36:38;;;;;;;37.90;25.53;;;6.60;99.90;;;;;;5004080;28;20240;-78
2022/12/05 04:39:29;;;;;;;36.63;24.50;;;6.60;99.90;;;;;;4989185;28;20369;-79
2022/12/05 04:42:04;;;;;;;36.35;26.10;;;6.60;99.90;;;;;;4984256;28;20041;-78
2022/12/05 04:44:33;;;;;;;38.60;25.20;;;6.50;99.90;;;;;;4975099;28;20046;-78
2022/12/05 04:47:01;;;;;;;37.13;27.00;;;6.30;99.90;;;;;;4968731;28;20136;-78
2022/12/05 04:49:28;;;;;;;40.30;26.20;;;6.20;99.90;;;;;;4954093;29;20039;-78
2022/12/05 04:51:55;;;;;;;35.50;26.27;;;6.10;99.90;;;;;;4953875;29;20031;-78
2022/12/05 04:54:30;;;;;;;36.77;27.30;;;6.00;99.90;;;;;;4938450;28;20043;-78
2022/12/05 04:57:04;;;;;;;35.83;26.30;;;6.10;99.90;;;;;;4969174;28;20034;-78
2022/12/05 04:59:30;;;;;;;35.47;25.53;;;6.00;99.90;;;;;;4956309;28;20504;-78
2022/12/05 05:01:58;;;;;;;35.57;25.97;;;5.90;99.90;;;;;;4972796;28;20042;-78
2022/12/05 05:04:26;;;;;;;38.23;25.63;;;5.80;99.90;;;;;;4972038;28;20050;-78
2022/12/05 05:06:52;;;;;;;38.20;26.00;;;5.70;99.90;;;;;;4994546;28;20226;-78
2022/12/05 05:09:18;;;;;;;41.13;26.40;;;5.60;99.90;;;;;;4989049;28;20053;-78
2022/12/05 05:11:44;;;;;;;37.70;26.47;;;5.60;99.90;;;;;;4989214;28;20038;-78
2022/12/05 05:14:10;;;;;;;34.70;25.97;;;5.70;99.90;;;;;;4989258;28;20294;-78
2022/12/05 05:16:38;;;;;;;36.30;25.60;;;5.90;99.90;;;;;;4988568;28;20027;-78
2022/12/05 05:19:05;;;;;;;39.53;26.63;;;5.90;99.90;;;;;;4988525;28;20484;-78
2022/12/05 05:21:34;;;;;;;36.87;26.37;;;5.90;99.90;;;;;;4970494;28;20035;-78
2022/12/05 05:24:01;;;;;;;37.60;25.67;;;6.00;99.90;;;;;;4988720;28;20047;-78
2022/12/05 05:26:28;;;;;;;39.70;26.83;;;5.90;99.90;;;;;;4987679;28;20054;-78
2022/12/05 05:28:55;;;;;;;36.80;25.40;;;5.90;99.90;;;;;;4988978;28;20023;-78
2022/12/05 05:31:22;;;;;;;35.40;25.03;;;5.90;99.90;;;;;;4969644;28;20443;-78
2022/12/05 05:33:52;;;;;;;34.30;24.67;;;6.00;99.90;;;;;;4988849;28;20041;-78
2022/12/05 05:36:19;;;;;;;35.22;25.35;;;6.10;99.90;;;;;;4988301;28;20046;-78
2022/12/05 05:38:46;;;;;;;33.13;24.47;;;6.20;99.90;;;;;;4988136;28;20047;-78
2022/12/05 05:41:17;;;;;;;33.07;24.33;;;6.00;99.90;;;;;;4975808;28;20037;-78
2022/12/05 05:43:43;;;;;;;37.97;24.50;;;5.90;99.90;;;;;;4953858;28;20054;-78
2022/12/05 05:46:10;;;;;;;36.57;24.53;;;5.80;99.90;;;;;;4961629;28;20103;-78
2022/12/05 05:48:36;;;;;;;35.37;24.07;;;5.70;99.90;;;;;;5007457;28;20031;-79
2022/12/05 05:51:03;;;;;;;31.10;23.80;;;5.70;99.90;;;;;;4991720;28;20038;-78
2022/12/05 05:53:29;;;;;;;30.97;23.87;;;5.60;99.90;;;;;;5008247;28;20030;-78
2022/12/05 05:55:55;;;;;;;31.87;25.03;;;5.70;99.90;;;;;;5010085;28;20030;-78
2022/12/05 05:58:22;;;;;;;37.60;26.10;;;5.60;99.90;;;;;;4979319;28;20041;-78
2022/12/05 06:00:48;;;;;;;33.80;25.20;;;5.60;99.90;;;;;;5010902;28;20038;-78
2022/12/05 06:03:14;;;;;;;34.33;25.10;;;5.60;99.90;;;;;;4975616;28;20495;-78
2022/12/05 06:05:40;;;;;;;31.87;25.13;;;5.60;99.90;;;;;;4991805;28;20034;-78
2022/12/05 06:08:06;;;;;;;37.70;25.60;;;5.70;99.90;;;;;;4960592;28;20039;-79
2022/12/05 06:10:32;;;;;;;40.13;26.80;;;5.70;99.90;;;;;;4974191;28;20035;-78
2022/12/05 06:12:59;;;;;;;38.40;25.67;;;5.60;99.90;;;;;;5008095;28;20026;-78
2022/12/05 06:15:25;;;;;;;33.97;24.63;;;5.60;99.90;;;;;;4983519;28;20039;-78
2022/12/05 06:17:51;;;;;;;36.87;25.50;;;5.50;99.90;;;;;;4991701;28;20383;-78
2022/12/05 06:20:17;;;;;;;36.90;26.33;;;5.50;99.90;;;;;;4975051;28;20045;-78
2022/12/05 06:22:43;;;;;;;34.67;24.50;;;5.50;99.90;;;;;;5007030;28;20030;-78
2022/12/05 06:25:09;;;;;;;32.57;24.80;;;5.60;99.90;;;;;;4973798;28;20038;-78
2022/12/05 06:27:35;;;;;;;38.03;25.67;;;5.60;99.90;;;;;;4991391;28;20027;-78
2022/12/05 06:30:01;;;;;;;36.90;26.53;;;5.50;99.90;;;;;;4981707;28;20035;-79
2022/12/05 06:32:28;;;;;;;33.50;26.87;;;5.60;99.90;;;;;;5003422;28;20042;-78
2022/12/05 06:34:54;;;;;;;36.53;24.60;;;5.60;99.90;;;;;;4993958;28;20033;-79
2022/12/05 06:37:21;;;;;;;36.03;25.53;;;5.60;99.90;;;;;;4991002;28;20034;-80
2022/12/05 06:39:47;;;;;;;37.40;25.50;;;5.50;99.90;;;;;;4989920;28;20042;-79
2022/12/05 06:42:13;;;;;;;35.73;26.53;;;5.60;99.90;;;;;;5007636;28;20034;-79
2022/12/05 06:44:39;;;;;;;37.00;23.53;;;5.60;99.90;;;;;;5007667;28;20057;-79
2022/12/05 06:47:05;;;;;;;37.90;25.80;;;5.50;99.90;;;;;;5006941;28;20034;-80
2022/12/05 06:49:32;;;;;;;34.27;24.50;;;5.60;99.90;;;;;;4959135;28;20503;-79
2022/12/05 06:51:58;;;;;;;30.73;25.13;;;5.60;99.90;;;;;;4975462;28;20365;-79
2022/12/05 06:54:24;;;;;;;39.20;24.63;;;5.60;99.90;;;;;;4974523;28;20030;-79
2022/12/05 06:56:50;;;;;;;34.43;24.40;;;5.60;99.90;;;;;;5021219;28;20041;-79
2022/12/05 06:59:16;;;;;;;36.10;23.87;;;5.50;99.90;;;;;;4973255;28;20202;-79
2022/12/05 07:01:45;;;;;;;30.17;22.37;;;5.60;99.90;;;;;;4992773;28;20030;-78
2022/12/05 07:04:23;;;;;;;30.93;22.43;;;5.50;99.90;;;;;;4978127;28;20034;-77
2022/12/05 07:06:49;;;;;;;30.87;23.17;;;5.40;99.90;;;;;;4978684;28;20023;-78
2022/12/05 07:09:16;;;;;;;27.47;22.37;;;5.40;99.90;;;;;;4977776;28;20030;-79
2022/12/05 07:11:48;;;;;;;28.97;22.17;;;5.40;99.90;;;;;;5010168;28;20022;-79
2022/12/05 07:14:14;;;;;;;30.27;22.53;;;5.50;99.90;;;;;;4963115;28;20309;-79
2022/12/05 07:16:40;;;;;;;27.37;21.67;;;5.60;99.90;;;;;;4961808;28;20038;-79
2022/12/05 07:19:06;;;;;;;27.03;21.77;;;5.60;99.90;;;;;;4977303;28;20472;-79
2022/12/05 07:21:32;;;;;;;31.33;21.03;;;5.60;99.90;;;;;;5010779;28;20026;-80
2022/12/05 07:23:58;;;;;;;26.97;21.23;;;5.60;99.90;;;;;;4993451;28;20034;-78
2022/12/05 07:26:25;;;;;;;27.00;21.13;;;5.50;99.90;;;;;;5010452;28;20496;-79
2022/12/05 07:28:51;;;;;;;26.57;21.63;;;5.60;99.90;;;;;;5010796;28;20033;-79
2022/12/05 07:31:19;;;;;;;28.27;21.47;;;5.60;99.90;;;;;;5009902;28;20049;-79
2022/12/05 07:33:45;;;;;;;28.77;21.33;;;5.60;99.90;;;;;;5008805;28;20391;-79
2022/12/05 07:36:13;;;;;;;24.73;20.93;;;5.70;99.90;;;;;;5007171;28;20054;-78
2022/12/05 07:38:39;;;;;;;23.50;21.10;;;5.80;99.90;;;;;;4978865;28;20074;-80
2022/12/05 07:41:07;;;;;;;24.63;21.93;;;5.80;99.90;;;;;;4993086;28;20061;-79
2022/12/05 07:43:33;;;;;;;28.77;22.07;;;5.80;99.90;;;;;;4994098;28;20027;-79
2022/12/05 07:46:03;;;;;;;28.00;21.50;;;5.80;99.90;;;;;;4992852;28;20038;-79
2022/12/05 07:48:29;;;;;;;25.90;21.57;;;5.80;99.90;;;;;;4994148;28;20027;-79
2022/12/05 07:51:02;;;;;;;29.43;22.57;;;5.80;99.90;;;;;;4993079;28;20033;-79
2022/12/05 07:53:28;;;;;;;28.77;21.37;;;6.00;99.90;;;;;;4991971;28;20042;-79
2022/12/05 07:55:54;;;;;;;26.10;20.47;;;5.90;99.90;;;;;;4980830;28;20034;-79
2022/12/05 07:58:20;;;;;;;27.37;21.93;;;6.00;99.90;;;;;;4980903;28;20048;-79
2022/12/05 08:00:47;;;;;;;24.53;20.73;;;6.10;99.90;;;;;;4996278;28;20033;-79
2022/12/05 08:03:13;;;;;;;26.50;20.93;;;6.30;99.90;;;;;;4988574;28;20038;-79
2022/12/05 08:05:39;;;;;;;25.67;21.90;;;6.50;99.90;;;;;;4961811;28;20065;-79
2022/12/05 08:08:05;;;;;;;26.53;21.50;;;6.50;99.90;;;;;;4976241;28;20026;-79
2022/12/05 08:10:32;;;;;;;47.77;23.77;;;6.50;99.90;;;;;;4993623;28;20479;-79
2022/12/05 08:12:58;;;;;;;29.23;22.50;;;6.50;99.90;;;;;;4991824;28;20022;-79
2022/12/05 08:15:24;;;;;;;25.57;22.00;;;6.60;99.90;;;;;;4992675;28;20038;-79
2022/12/05 08:17:50;;;;;;;26.83;22.73;;;6.60;99.90;;;;;;4977080;28;20285;-79
2022/12/05 08:20:16;;;;;;;24.30;21.70;;;6.60;99.90;;;;;;5000477;28;20446;-79
2022/12/05 08:22:43;;;;;;;28.70;22.83;;;6.60;99.90;;;;;;4993541;28;20487;-79
2022/12/05 08:25:09;;;;;;;28.60;23.03;;;6.60;99.90;;;;;;4990730;28;20038;-79
2022/12/05 08:27:35;;;;;;;30.10;22.63;;;6.50;99.90;;;;;;5003911;28;20050;-80
2022/12/05 08:30:01;;;;;;;27.17;23.37;;;6.50;99.90;;;;;;4993092;28;20050;-79
2022/12/05 08:32:27;;;;;;;28.73;22.53;;;6.50;99.90;;;;;;4976667;28;20041;-79
2022/12/05 08:34:53;;;;;;;31.20;23.80;;;6.60;99.90;;;;;;4977576;28;20049;-79
2022/12/05 08:37:19;;;;;;;31.63;24.03;;;6.60;99.90;;;;;;4994331;28;20037;-79
2022/12/05 08:39:45;;;;;;;29.20;25.07;;;6.40;99.90;;;;;;4978371;28;20050;-79
2022/12/05 08:42:12;;;;;;;30.57;24.67;;;6.40;99.90;;;;;;4973848;28;20050;-79
2022/12/05 08:44:38;;;;;;;30.07;23.43;;;6.30;99.90;;;;;;4973113;28;20042;-79
2022/12/05 08:47:04;;;;;;;29.63;24.17;;;6.20;99.90;;;;;;4957685;28;20400;-79
2022/12/05 08:49:30;;;;;;;29.33;24.93;;;6.10;99.90;;;;;;4973525;28;20464;-79
2022/12/05 08:51:56;;;;;;;33.73;24.10;;;6.10;99.90;;;;;;4974332;28;20411;-79
2022/12/05 08:54:22;;;;;;;33.90;25.20;;;6.20;99.90;;;;;;4976032;28;20380;-80
2022/12/05 08:56:51;;;;;;;35.17;26.33;;;6.30;99.90;;;;;;4991333;28;20406;-80
2022/12/05 08:59:18;;;;;;;30.07;25.27;;;6.50;99.90;;;;;;4995683;28;20037;-80
2022/12/05 09:01:44;;;;;;;27.57;23.03;;;6.60;99.90;;;;;;4995479;28;20037;-79
2022/12/05 09:04:11;;;;;;;29.77;24.60;;;6.80;99.90;;;;;;4985014;28;20030;-79
2022/12/05 09:06:38;;;;;;;32.10;24.00;;;6.80;99.90;;;;;;4986700;28;20049;-80
2022/12/05 09:09:05;;;;;;;29.77;23.17;;;6.80;99.90;;;;;;4971168;28;20042;-81
2022/12/05 09:11:34;;;;;;;30.67;25.93;;;6.80;99.90;;;;;;4990681;28;20399;-81
2022/12/05 09:14:00;;;;;;;27.37;23.43;;;6.60;99.90;;;;;;4961867;28;20389;-80
2022/12/05 09:16:31;;;;;;;30.53;23.70;;;6.50;99.90;;;;;;4996758;28;20107;-81
2022/12/05 09:18:57;;;;;;;27.30;22.30;;;6.40;99.90;;;;;;5005018;28;20035;-80
2022/12/05 09:21:25;;;;;;;30.20;24.83;;;6.50;99.90;;;;;;4987414;28;20054;-80
2022/12/05 09:23:51;;;;;;;30.87;24.07;;;6.40;99.90;;;;;;5004393;28;20027;-80
2022/12/05 09:26:19;;;;;;;27.40;22.43;;;6.60;99.90;;;;;;5003158;28;20054;-80
2022/12/05 09:28:46;;;;;;;32.70;23.70;;;6.60;99.90;;;;;;4988522;28;20035;-80
2022/12/05 09:31:19;;;;;;;33.43;26.83;;;6.60;99.90;;;;;;4984183;28;20039;-80
2022/12/05 09:33:46;;;;;;;29.40;22.70;;;6.70;99.90;;;;;;4969373;28;20043;-79
2022/12/05 09:36:26;;;;;;;25.70;21.90;;;6.90;99.90;;;;;;4991056;28;20046;-80
2022/12/05 09:38:53;;;;;;;26.30;22.63;;;7.10;99.90;;;;;;5004355;28;20035;-79
2022/12/05 09:44:29;;;;;;;29.13;22.00;;;6.80;99.90;;;;;;4974031;28;20046;-80
2022/12/05 09:47:01;;;;;;;26.97;21.73;;;6.60;99.90;;;;;;4966933;28;20043;-80
2022/12/05 09:49:28;;;;;;;23.90;20.70;;;6.60;99.90;;;;;;5005142;28;20031;-79
2022/12/05 09:51:54;;;;;;;25.40;20.33;;;6.50;99.90;;;;;;5004562;28;20041;-80
2022/12/05 09:54:20;;;;;;;21.93;19.23;;;6.40;99.90;;;;;;5003882;28;20035;-80
2022/12/05 09:56:47;;;;;;;22.63;19.60;;;6.50;99.90;;;;;;4958574;28;20066;-80
2022/12/05 09:59:19;;;;;;;24.77;21.70;;;6.40;99.90;;;;;;4968660;28;20400;-81
2022/12/05 10:01:48;;;;;;;23.87;20.87;;;6.40;99.90;;;;;;5000915;28;20423;-80
2022/12/05 10:04:29;;;;;;;22.17;19.77;;;6.40;99.90;;;;;;5001011;28;20499;-80
2022/12/05 10:07:10;;;;;;;24.10;21.50;;;6.30;99.90;;;;;;4988074;28;20066;-81
2022/12/05 10:09:41;;;;;;;33.33;23.75;;;6.40;99.90;;;;;;5003503;28;20511;-88
2022/12/05 10:12:29;;;;;;;23.73;20.83;;;6.60;99.90;;;;;;5004333;28;20046;-80
2022/12/05 10:15:04;;;;;;;24.07;21.47;;;6.60;99.90;;;;;;5004621;28;20054;-80
2022/12/05 10:17:35;;;;;;;21.23;18.97;;;6.50;99.90;;;;;;4979369;28;20408;-80
2022/12/05 10:20:04;;;;;;;24.80;20.50;;;6.50;99.90;;;;;;4980484;28;20419;-80
2022/12/05 10:22:41;;;;;;;25.37;20.60;;;6.40;99.90;;;;;;4958716;28;20031;-81
2022/12/05 10:25:08;;;;;;;24.77;20.73;;;6.60;99.90;;;;;;4966054;28;20065;-81
2022/12/05 10:27:44;;;;;;;20.77;18.57;;;6.50;99.90;;;;;;4976033;28;20046;-81
2022/12/05 10:30:23;;;;;;;24.77;21.60;;;6.40;99.90;;;;;;4971493;28;20031;-81
2022/12/05 10:33:01;;;;;;;25.70;21.83;;;6.40;99.90;;;;;;4957252;28;20054;-81
2022/12/05 10:35:37;;;;;;;24.27;20.37;;;6.40;99.90;;;;;;5005928;28;20395;-81
2022/12/05 10:38:18;;;;;;;24.57;21.10;;;6.50;99.90;;;;;;4982773;28;20046;-82
2022/12/05 10:40:45;;;;;;;;;;;6.50;99.90;;;;;;4991394;28;20050;-83
2022/12/05 10:43:13;;;;;;;19.97;17.87;;;6.60;99.90;;;;;;5008180;28;19910;-82
2022/12/05 10:45:44;;;;;;;19.47;16.83;;;6.60;99.90;;;;;;5012043;28;20086;-81
2022/12/05 10:48:11;;;;;;;;;;;6.60;99.90;;;;;;5010889;28;20022;-82
2022/12/05 10:50:37;;;;;;;22.00;18.30;;;6.70;99.90;;;;;;5014103;28;20283;-82
2022/12/05 10:53:04;;;;;;;26.10;20.67;;;6.70;99.90;;;;;;4978248;28;20383;-83
2022/12/05 10:55:39;;;;;;;19.10;17.23;;;6.80;99.90;;;;;;4983725;28;20483;-82
2022/12/05 10:58:14;;;;;;;21.13;18.87;;;6.80;99.90;;;;;;4955219;28;20043;-81
2022/12/05 11:00:45;;;;;;;21.33;18.23;;;6.90;99.90;;;;;;5007887;28;20039;-82
2022/12/05 11:03:38;;;;;;;20.00;18.30;;;6.90;99.90;;;;;;5002735;28;20030;-83
2022/12/05 11:06:28;;;;;;;20.70;18.80;;;7.00;99.90;;;;;;4986752;28;20050;-82
2022/12/05 11:09:22;;;;;;;19.60;17.83;;;7.00;99.90;;;;;;4981372;28;20460;-81
2022/12/05 11:12:21;;;;;;;19.93;18.03;;;7.10;99.90;;;;;;4972140;28;20042;-82
2022/12/05 11:15:00;;;;;;;16.60;15.10;;;7.00;99.90;;;;;;4990038;28;20038;-82
2022/12/05 11:17:35;;;;;;;21.63;19.43;;;6.90;99.90;;;;;;5000748;28;20046;-82
2022/12/05 11:20:02;;;;;;;19.20;17.27;;;7.00;99.90;;;;;;4974500;28;20038;-83
2022/12/05 11:22:32;;;;;;;16.73;15.20;;;7.00;99.90;;;;;;4977592;28;20069;-83
2022/12/05 11:24:58;;;;;;;20.33;18.42;;;6.90;99.90;;;;;;5006888;28;20038;-83
2022/12/05 11:27:30;;;;;;;17.97;16.23;;;7.00;99.90;;;;;;4993109;28;20392;-82
2022/12/05 11:29:58;;;;;;;19.50;17.00;;;7.00;99.90;;;;;;5004679;28;20030;-82
2022/12/05 11:32:27;;;;;;;18.33;16.53;;;7.00;99.90;;;;;;4959820;28;20038;-81
2022/12/05 11:34:56;;;;;;;18.27;16.37;;;7.10;99.90;;;;;;4970368;28;20478;-81
2022/12/05 11:37:28;;;;;;;17.47;15.67;;;7.10;99.90;;;;;;5001619;28;20049;-81
2022/12/05 11:39:54;;;;;;;18.73;16.83;;;7.00;99.90;;;;;;4976278;28;20058;-76
2022/12/05 11:42:30;;;;;;;16.73;15.13;;;7.00;99.90;;;;;;5009530;28;20042;-79
2022/12/05 11:45:11;;;;;;;16.47;14.97;;;7.10;99.90;;;;;;4977410;28;20587;-79
2022/12/05 11:47:56;;;;;;;17.77;14.93;;;7.10;99.90;;;;;;4973257;28;20404;-80
2022/12/05 11:50:24;;;;;;;18.53;16.17;;;7.10;99.90;;;;;;5002167;28;20057;-80
2022/12/05 11:53:02;;;;;;;18.03;16.23;;;7.20;99.90;;;;;;4973631;28;20042;-80
2022/12/05 11:55:38;;;;;;;18.47;16.57;;;7.20;99.90;;;;;;4943727;28;20521;-80
2022/12/05 11:58:41;;;;;;;18.00;16.30;;;7.20;99.90;;;;;;5005477;28;20062;-80
2022/12/05 12:01:17;;;;;;;18.70;16.93;;;7.20;99.90;;;;;;4980177;28;20045;-81
2022/12/05 12:04:04;;;;;;;17.40;15.83;;;7.30;99.90;;;;;;4988860;28;20364;-80
2022/12/05 12:07:01;;;;;;;17.43;15.67;;;7.30;99.90;;;;;;4990826;28;20388;-80
2022/12/05 12:09:42;;;;;;;18.17;16.43;;;7.30;99.90;;;;;;4992948;28;20041;-80
2022/12/05 12:12:27;;;;;;;17.98;16.50;;;7.30;99.90;;;;;;4991592;28;20038;-80
2022/12/05 12:15:19;;;;;;;15.37;14.07;;;7.30;99.90;;;;;;4999735;28;20050;-80
2022/12/05 12:18:10;;;;;;;17.60;16.10;;;7.40;99.90;;;;;;4986376;28;20517;-80
2022/12/05 12:20:54;;;;;;;19.38;17.77;;;7.30;99.90;;;;;;5024884;28;20053;-80
2022/12/05 12:24:02;;;;;;;19.00;17.40;;;7.30;99.90;;;;;;4974816;28;20035;-80
2022/12/05 12:26:54;;;;;;;17.07;15.47;;;7.30;99.90;;;;;;5009919;28;20518;-80
2022/12/05 12:29:57;;;;;;;19.73;17.83;;;7.30;99.90;;;;;;5009437;28;20521;-81
2022/12/05 12:32:32;;;;;;;19.50;17.80;;;7.40;99.90;;;;;;5010455;28;20450;-80
2022/12/05 12:35:25;;;;;;;19.43;17.77;;;7.30;99.90;;;;;;5009786;28;20042;-80
2022/12/05 12:37:54;;;;;;;20.30;18.43;;;7.30;99.90;;;;;;4994606;28;20521;-79
2022/12/05 12:40:25;;;;;;;21.13;19.20;;;7.30;99.90;;;;;;5010843;28;20061;-79
2022/12/05 12:43:04;;;;;;;20.15;18.25;;;7.40;99.90;;;;;;4993290;28;20034;-80
2022/12/05 12:46:06;;;;;;;20.37;18.47;;;7.40;99.90;;;;;;5009603;28;20049;-80
2022/12/05 12:49:13;;;;;;;20.27;18.47;;;7.40;99.90;;;;;;4991131;28;20403;-80
2022/12/05 12:51:52;;;;;;;21.10;19.00;;;7.40;99.90;;;;;;5007070;28;20149;-80
2022/12/05 12:54:37;;;;;;;20.03;17.90;;;7.50;99.90;;;;;;4990549;28;20205;-80
2022/12/05 12:57:19;;;;;;;19.13;17.37;;;7.60;99.90;;;;;;5012020;28;20034;-79
2022/12/05 12:59:59;;;;;;;18.83;17.00;;;7.60;99.90;;;;;;4991914;28;20046;-79
2022/12/05 13:02:28;;;;;;;19.70;17.83;;;7.50;99.90;;;;;;4976724;28;20526;-79
2022/12/05 13:05:06;;;;;;;19.73;18.10;;;7.50;99.90;;;;;;4991049;28;20054;-79
2022/12/05 13:07:40;;;;;;;19.37;17.43;;;7.50;99.90;;;;;;4973349;28;20046;-79